Main page
METAR-TAF:

METAR-TAF

Airports :

Indira Gandhi International Airport

New Delhi, India

latitude: 28-34N, longitude: 077-07E, elevation: 220 m

Current weather observation

The report was made 21 minutes ago, at 09:30 UTC
Wind 8 kt from the West/Northwest
Temperature 26°C
Humidity 42%
Pressure 1011 hPa
Visibility: 3200 m
haze

METAR: VIDP 170930Z 29008KT 3200 HZ NSC 26/12 Q1011 NOSIG

Time: 15:21 (09:51 UTC)

Forecast

The report was made 1 hour and 51 minutes ago, at 08:00 UTC
Forecast valid from 17 at 09 UTC to 17 at 18 UTC
Wind 9 kt from the West/Northwest
Visibility: 3500 m
haze
Becoming
from 17 at 15 UTC to 17 at 17 UTC
Wind 5 kt from the North
Visibility: 2500 m
haze, mist

TAF: VIDP 170800Z 1709/1718 29009KT 3500 HZ NSC BECMG 1715/1717 35005KT 2500 HZ BR

Weather observations and forecasts of more than 4000 airports (METAR and TAF reports).

The available stations are represented by yellow and red dots on the map.

Hover mouse over dot to see the name of the station.

Then click to see weather observations and forecasts.

To change the map : click on the green buttons with a black cross to zoom in, on the green button with a dash to zoom out, or on the green arrows for adjacent maps.


METAR-TAF: